sensor_id;sensor_type;location;lat;lon;timestamp;temperature;humidity
20068;DHT22;10194;50.824;7.134;2022-07-04T00:00:37;16.30;99.90
20068;DHT22;10194;50.824;7.134;2022-07-04T00:03:03;16.30;99.90
20068;DHT22;10194;50.824;7.134;2022-07-04T00:05:29;16.20;99.90
20068;DHT22;10194;50.824;7.134;2022-07-04T00:07:55;16.20;99.90
20068;DHT22;10194;50.824;7.134;2022-07-04T00:10:20;16.10;99.90
20068;DHT22;10194;50.824;7.134;2022-07-04T00:12:46;16.00;99.90
20068;DHT22;10194;50.824;7.134;2022-07-04T00:15:13;16.00;99.90
20068;DHT22;10194;50.824;7.134;2022-07-04T00:17:40;15.90;99.90
20068;DHT22;10194;50.824;7.134;2022-07-04T00:20:07;15.90;99.90
20068;DHT22;10194;50.824;7.134;2022-07-04T00:22:34;15.80;99.90
20068;DHT22;10194;50.824;7.134;2022-07-04T00:25:00;15.60;99.90
20068;DHT22;10194;50.824;7.134;2022-07-04T00:27:26;15.50;99.90
20068;DHT22;10194;50.824;7.134;2022-07-04T00:29:52;15.50;99.90
20068;DHT22;10194;50.824;7.134;2022-07-04T00:32:18;15.40;99.90
20068;DHT22;10194;50.824;7.134;2022-07-04T00:34:44;15.40;99.90
20068;DHT22;10194;50.824;7.134;2022-07-04T00:37:10;15.30;99.90
20068;DHT22;10194;50.824;7.134;2022-07-04T00:39:36;15.20;99.90
20068;DHT22;10194;50.824;7.134;2022-07-04T00:42:02;15.20;99.90
20068;DHT22;10194;50.824;7.134;2022-07-04T00:44:29;15.20;99.90
20068;DHT22;10194;50.824;7.134;2022-07-04T00:46:56;15.10;99.90
20068;DHT22;10194;50.824;7.134;2022-07-04T00:49:22;15.10;99.90
20068;DHT22;10194;50.824;7.134;2022-07-04T00:51:47;15.00;99.90
20068;DHT22;10194;50.824;7.134;2022-07-04T00:54:15;14.90;99.90
20068;DHT22;10194;50.824;7.134;2022-07-04T00:56:44;14.90;99.90
20068;DHT22;10194;50.824;7.134;2022-07-04T00:59:11;14.90;99.90
20068;DHT22;10194;50.824;7.134;2022-07-04T01:01:38;14.90;99.90
20068;DHT22;10194;50.824;7.134;2022-07-04T01:04:05;14.80;99.90
20068;DHT22;10194;50.824;7.134;2022-07-04T01:06:32;14.80;99.90
20068;DHT22;10194;50.824;7.134;2022-07-04T01:08:59;14.70;99.90
20068;DHT22;10194;50.824;7.134;2022-07-04T01:11:25;14.70;99.90
20068;DHT22;10194;50.824;7.134;2022-07-04T01:13:51;14.60;99.90
20068;DHT22;10194;50.824;7.134;2022-07-04T01:16:19;14.60;99.90
20068;DHT22;10194;50.824;7.134;2022-07-04T01:18:44;14.50;99.90
20068;DHT22;10194;50.824;7.134;2022-07-04T01:21:10;14.40;99.90
20068;DHT22;10194;50.824;7.134;2022-07-04T01:23:38;14.40;99.90
20068;DHT22;10194;50.824;7.134;2022-07-04T01:26:04;14.40;99.90
20068;DHT22;10194;50.824;7.134;2022-07-04T01:28:31;14.30;99.90
20068;DHT22;10194;50.824;7.134;2022-07-04T01:30:57;14.30;99.90
20068;DHT22;10194;50.824;7.134;2022-07-04T01:33:23;14.30;99.90
20068;DHT22;10194;50.824;7.134;2022-07-04T01:35:48;14.20;99.90
20068;DHT22;10194;50.824;7.134;2022-07-04T01:38:15;14.10;99.90
20068;DHT22;10194;50.824;7.134;2022-07-04T01:40:41;14.10;99.90
20068;DHT22;10194;50.824;7.134;2022-07-04T01:43:07;14.10;99.90
20068;DHT22;10194;50.824;7.134;2022-07-04T01:45:33;14.00;99.90
20068;DHT22;10194;50.824;7.134;2022-07-04T01:48:00;14.00;99.90
20068;DHT22;10194;50.824;7.134;2022-07-04T01:50:26;13.90;99.90
20068;DHT22;10194;50.824;7.134;2022-07-04T01:52:52;13.90;99.90
20068;DHT22;10194;50.824;7.134;2022-07-04T01:55:18;13.80;99.90
20068;DHT22;10194;50.824;7.134;2022-07-04T01:57:44;13.80;99.90
20068;DHT22;10194;50.824;7.134;2022-07-04T02:00:10;13.80;99.90
20068;DHT22;10194;50.824;7.134;2022-07-04T02:02:55;13.80;99.90
20068;DHT22;10194;50.824;7.134;2022-07-04T02:05:21;13.70;99.90
20068;DHT22;10194;50.824;7.134;2022-07-04T02:07:48;13.70;99.90
20068;DHT22;10194;50.824;7.134;2022-07-04T02:10:14;13.60;99.90
20068;DHT22;10194;50.824;7.134;2022-07-04T02:12:40;13.60;99.90
20068;DHT22;10194;50.824;7.134;2022-07-04T02:15:25;13.50;99.90
20068;DHT22;10194;50.824;7.134;2022-07-04T02:17:51;13.50;99.90
20068;DHT22;10194;50.824;7.134;2022-07-04T02:20:17;13.50;99.90
20068;DHT22;10194;50.824;7.134;2022-07-04T02:22:43;13.40;99.90
20068;DHT22;10194;50.824;7.134;2022-07-04T02:25:09;13.40;99.90
20068;DHT22;10194;50.824;7.134;2022-07-04T02:27:37;13.40;99.90
20068;DHT22;10194;50.824;7.134;2022-07-04T02:30:04;13.40;99.90
20068;DHT22;10194;50.824;7.134;2022-07-04T02:32:31;13.30;99.90
20068;DHT22;10194;50.824;7.134;2022-07-04T02:34:57;13.40;99.90
20068;DHT22;10194;50.824;7.134;2022-07-04T02:37:23;13.30;99.90
20068;DHT22;10194;50.824;7.134;2022-07-04T02:39:49;13.30;99.90
20068;DHT22;10194;50.824;7.134;2022-07-04T02:42:15;13.30;99.90
20068;DHT22;10194;50.824;7.134;2022-07-04T02:44:40;13.20;99.90
20068;DHT22;10194;50.824;7.134;2022-07-04T02:47:07;13.10;99.90
20068;DHT22;10194;50.824;7.134;2022-07-04T02:49:33;13.00;99.90
20068;DHT22;10194;50.824;7.134;2022-07-04T02:51:59;13.00;99.90
20068;DHT22;10194;50.824;7.134;2022-07-04T02:54:24;13.00;99.90
20068;DHT22;10194;50.824;7.134;2022-07-04T02:56:50;13.10;99.90
20068;DHT22;10194;50.824;7.134;2022-07-04T02:59:16;13.20;99.90
20068;DHT22;10194;50.824;7.134;2022-07-04T03:01:42;13.10;99.90
20068;DHT22;10194;50.824;7.134;2022-07-04T03:04:07;13.00;99.90
20068;DHT22;10194;50.824;7.134;2022-07-04T03:06:33;13.00;99.90
20068;DHT22;10194;50.824;7.134;2022-07-04T03:08:59;12.90;99.90
20068;DHT22;10194;50.824;7.134;2022-07-04T03:11:25;13.00;99.90
20068;DHT22;10194;50.824;7.134;2022-07-04T03:13:50;12.90;99.90
20068;DHT22;10194;50.824;7.134;2022-07-04T03:16:16;12.90;99.90
20068;DHT22;10194;50.824;7.134;2022-07-04T03:18:42;12.90;99.90
20068;DHT22;10194;50.824;7.134;2022-07-04T03:21:08;12.80;99.90
20068;DHT22;10194;50.824;7.134;2022-07-04T03:23:34;12.80;99.90
20068;DHT22;10194;50.824;7.134;2022-07-04T03:26:00;12.80;99.90
20068;DHT22;10194;50.824;7.134;2022-07-04T03:28:27;12.70;99.90
20068;DHT22;10194;50.824;7.134;2022-07-04T03:30:53;12.70;99.90
20068;DHT22;10194;50.824;7.134;2022-07-04T03:33:19;12.70;99.90
20068;DHT22;10194;50.824;7.134;2022-07-04T03:35:45;12.70;99.90
20068;DHT22;10194;50.824;7.134;2022-07-04T03:38:11;12.70;99.90
20068;DHT22;10194;50.824;7.134;2022-07-04T03:40:37;12.70;99.90
20068;DHT22;10194;50.824;7.134;2022-07-04T03:43:04;12.70;99.90
20068;DHT22;10194;50.824;7.134;2022-07-04T03:45:32;12.70;99.90
20068;DHT22;10194;50.824;7.134;2022-07-04T03:47:58;12.70;99.90
20068;DHT22;10194;50.824;7.134;2022-07-04T03:50:24;12.70;99.90
20068;DHT22;10194;50.824;7.134;2022-07-04T03:52:50;12.60;99.90
20068;DHT22;10194;50.824;7.134;2022-07-04T03:55:16;12.60;99.90
20068;DHT22;10194;50.824;7.134;2022-07-04T03:57:42;12.60;99.90
20068;DHT22;10194;50.824;7.134;2022-07-04T04:00:08;12.60;99.90
20068;DHT22;10194;50.824;7.134;2022-07-04T04:02:36;12.70;99.90
20068;DHT22;10194;50.824;7.134;2022-07-04T04:05:03;12.70;99.90
20068;DHT22;10194;50.824;7.134;2022-07-04T04:07:48;12.70;99.90
20068;DHT22;10194;50.824;7.134;2022-07-04T04:10:15;12.70;99.90
20068;DHT22;10194;50.824;7.134;2022-07-04T04:12:41;12.80;99.90
20068;DHT22;10194;50.824;7.134;2022-07-04T04:15:07;12.80;99.90
20068;DHT22;10194;50.824;7.134;2022-07-04T04:17:34;12.80;99.90
20068;DHT22;10194;50.824;7.134;2022-07-04T04:20:00;12.90;99.90
20068;DHT22;10194;50.824;7.134;2022-07-04T04:22:28;12.80;99.90
20068;DHT22;10194;50.824;7.134;2022-07-04T04:24:54;12.90;99.90
20068;DHT22;10194;50.824;7.134;2022-07-04T04:27:20;13.00;99.90
20068;DHT22;10194;50.824;7.134;2022-07-04T04:29:46;13.00;99.90
20068;DHT22;10194;50.824;7.134;2022-07-04T04:32:12;13.00;99.90
20068;DHT22;10194;50.824;7.134;2022-07-04T04:34:37;13.00;99.90
20068;DHT22;10194;50.824;7.134;2022-07-04T04:37:03;13.00;99.90
20068;DHT22;10194;50.824;7.134;2022-07-04T04:39:29;13.00;99.90
20068;DHT22;10194;50.824;7.134;2022-07-04T04:41:55;13.00;99.90
20068;DHT22;10194;50.824;7.134;2022-07-04T04:44:21;13.10;99.90
20068;DHT22;10194;50.824;7.134;2022-07-04T04:46:46;13.20;99.90
20068;DHT22;10194;50.824;7.134;2022-07-04T04:49:12;13.20;99.90
20068;DHT22;10194;50.824;7.134;2022-07-04T04:51:38;13.30;99.90
20068;DHT22;10194;50.824;7.134;2022-07-04T04:54:05;13.40;99.90
20068;DHT22;10194;50.824;7.134;2022-07-04T04:56:31;13.50;99.90
20068;DHT22;10194;50.824;7.134;2022-07-04T04:58:57;13.50;99.90
20068;DHT22;10194;50.824;7.134;2022-07-04T05:01:23;13.70;99.90
20068;DHT22;10194;50.824;7.134;2022-07-04T05:03:49;13.80;99.90
20068;DHT22;10194;50.824;7.134;2022-07-04T05:06:15;13.90;99.90
20068;DHT22;10194;50.824;7.134;2022-07-04T05:08:40;13.90;99.90
20068;DHT22;10194;50.824;7.134;2022-07-04T05:11:06;14.00;99.90
20068;DHT22;10194;50.824;7.134;2022-07-04T05:13:32;14.00;99.90
20068;DHT22;10194;50.824;7.134;2022-07-04T05:15:58;14.20;99.90
20068;DHT22;10194;50.824;7.134;2022-07-04T05:18:24;14.30;99.90
20068;DHT22;10194;50.824;7.134;2022-07-04T05:20:50;14.40;99.90
20068;DHT22;10194;50.824;7.134;2022-07-04T05:23:16;14.50;99.90
20068;DHT22;10194;50.824;7.134;2022-07-04T05:25:42;14.70;99.90
20068;DHT22;10194;50.824;7.134;2022-07-04T05:28:07;14.70;99.90
20068;DHT22;10194;50.824;7.134;2022-07-04T05:30:33;14.80;99.90
20068;DHT22;10194;50.824;7.134;2022-07-04T05:32:59;14.80;99.90
20068;DHT22;10194;50.824;7.134;2022-07-04T05:35:26;14.90;99.90
20068;DHT22;10194;50.824;7.134;2022-07-04T05:37:53;15.00;99.90
20068;DHT22;10194;50.824;7.134;2022-07-04T05:40:19;15.10;99.90
20068;DHT22;10194;50.824;7.134;2022-07-04T05:42:47;15.20;99.90
20068;DHT22;10194;50.824;7.134;2022-07-04T05:45:14;15.30;99.90
20068;DHT22;10194;50.824;7.134;2022-07-04T05:47:39;15.30;99.90
20068;DHT22;10194;50.824;7.134;2022-07-04T05:50:06;15.30;99.90
20068;DHT22;10194;50.824;7.134;2022-07-04T05:52:32;15.40;99.90
20068;DHT22;10194;50.824;7.134;2022-07-04T05:54:57;15.50;99.90
20068;DHT22;10194;50.824;7.134;2022-07-04T05:57:23;15.70;99.90
20068;DHT22;10194;50.824;7.134;2022-07-04T05:59:49;15.80;99.90
20068;DHT22;10194;50.824;7.134;2022-07-04T06:02:16;15.90;99.90
20068;DHT22;10194;50.824;7.134;2022-07-04T06:04:42;16.00;99.90
20068;DHT22;10194;50.824;7.134;2022-07-04T06:07:09;15.90;99.90
20068;DHT22;10194;50.824;7.134;2022-07-04T06:09:35;15.90;99.90
20068;DHT22;10194;50.824;7.134;2022-07-04T06:12:02;15.90;99.90
20068;DHT22;10194;50.824;7.134;2022-07-04T06:14:29;15.90;99.90
20068;DHT22;10194;50.824;7.134;2022-07-04T06:16:54;16.10;99.90
20068;DHT22;10194;50.824;7.134;2022-07-04T06:19:20;16.20;99.90
20068;DHT22;10194;50.824;7.134;2022-07-04T06:21:46;16.40;99.90
20068;DHT22;10194;50.824;7.134;2022-07-04T06:24:12;16.60;99.90
20068;DHT22;10194;50.824;7.134;2022-07-04T06:26:38;16.70;99.90
20068;DHT22;10194;50.824;7.134;2022-07-04T06:29:04;16.80;99.90
20068;DHT22;10194;50.824;7.134;2022-07-04T06:31:30;16.80;99.90
20068;DHT22;10194;50.824;7.134;2022-07-04T06:33:55;16.90;99.90
20068;DHT22;10194;50.824;7.134;2022-07-04T06:36:40;16.90;99.90
20068;DHT22;10194;50.824;7.134;2022-07-04T06:39:05;17.20;99.90
20068;DHT22;10194;50.824;7.134;2022-07-04T06:41:31;17.40;99.90
20068;DHT22;10194;50.824;7.134;2022-07-04T06:43:57;18.00;99.90
20068;DHT22;10194;50.824;7.134;2022-07-04T06:46:22;18.40;99.90
20068;DHT22;10194;50.824;7.134;2022-07-04T06:48:48;18.50;99.90
20068;DHT22;10194;50.824;7.134;2022-07-04T06:51:14;18.70;99.90
20068;DHT22;10194;50.824;7.134;2022-07-04T06:53:41;18.80;99.90
20068;DHT22;10194;50.824;7.134;2022-07-04T06:56:08;18.80;99.90
20068;DHT22;10194;50.824;7.134;2022-07-04T06:58:34;18.80;99.90
20068;DHT22;10194;50.824;7.134;2022-07-04T07:00:59;18.90;99.90
20068;DHT22;10194;50.824;7.134;2022-07-04T07:03:25;19.10;99.90
20068;DHT22;10194;50.824;7.134;2022-07-04T07:05:52;19.30;99.90
20068;DHT22;10194;50.824;7.134;2022-07-04T07:08:18;20.00;99.90
20068;DHT22;10194;50.824;7.134;2022-07-04T07:10:44;21.00;99.90
20068;DHT22;10194;50.824;7.134;2022-07-04T07:13:10;21.70;99.60
20068;DHT22;10194;50.824;7.134;2022-07-04T07:15:36;22.40;95.50
20068;DHT22;10194;50.824;7.134;2022-07-04T07:18:03;22.80;94.60
20068;DHT22;10194;50.824;7.134;2022-07-04T07:20:29;23.00;93.30
20068;DHT22;10194;50.824;7.134;2022-07-04T07:22:55;23.30;92.50
20068;DHT22;10194;50.824;7.134;2022-07-04T07:25:21;23.60;92.10
20068;DHT22;10194;50.824;7.134;2022-07-04T07:27:47;24.10;93.00
20068;DHT22;10194;50.824;7.134;2022-07-04T07:30:13;24.50;87.90
20068;DHT22;10194;50.824;7.134;2022-07-04T07:32:38;24.70;85.90
20068;DHT22;10194;50.824;7.134;2022-07-04T07:35:05;24.80;81.90
20068;DHT22;10194;50.824;7.134;2022-07-04T07:37:31;24.90;80.00
20068;DHT22;10194;50.824;7.134;2022-07-04T07:39:57;25.20;80.70
20068;DHT22;10194;50.824;7.134;2022-07-04T07:42:24;25.50;82.50
20068;DHT22;10194;50.824;7.134;2022-07-04T07:44:51;25.40;78.60
20068;DHT22;10194;50.824;7.134;2022-07-04T07:47:17;25.50;73.30
20068;DHT22;10194;50.824;7.134;2022-07-04T07:49:43;25.40;75.00
20068;DHT22;10194;50.824;7.134;2022-07-04T07:52:10;25.30;75.60
20068;DHT22;10194;50.824;7.134;2022-07-04T07:54:36;25.10;69.50
20068;DHT22;10194;50.824;7.134;2022-07-04T07:57:02;24.20;71.40
20068;DHT22;10194;50.824;7.134;2022-07-04T07:59:28;23.70;75.00
20068;DHT22;10194;50.824;7.134;2022-07-04T08:01:54;24.10;79.20
20068;DHT22;10194;50.824;7.134;2022-07-04T08:04:20;24.00;75.00
20068;DHT22;10194;50.824;7.134;2022-07-04T08:07:03;23.60;78.20
20068;DHT22;10194;50.824;7.134;2022-07-04T08:09:30;23.80;75.00
20068;DHT22;10194;50.824;7.134;2022-07-04T08:11:56;23.90;76.60
20068;DHT22;10194;50.824;7.134;2022-07-04T08:14:22;23.20;76.00
20068;DHT22;10194;50.824;7.134;2022-07-04T08:16:48;22.90;76.60
20068;DHT22;10194;50.824;7.134;2022-07-04T08:19:14;22.80;80.80
20068;DHT22;10194;50.824;7.134;2022-07-04T08:21:40;23.30;81.20
20068;DHT22;10194;50.824;7.134;2022-07-04T08:24:06;23.60;78.90
20068;DHT22;10194;50.824;7.134;2022-07-04T08:26:32;24.20;79.10
20068;DHT22;10194;50.824;7.134;2022-07-04T08:28:58;24.30;78.70
20068;DHT22;10194;50.824;7.134;2022-07-04T08:31:25;24.50;71.30
20068;DHT22;10194;50.824;7.134;2022-07-04T08:33:52;24.50;72.30
20068;DHT22;10194;50.824;7.134;2022-07-04T08:36:18;24.70;76.30
20068;DHT22;10194;50.824;7.134;2022-07-04T08:38:44;24.70;73.60
20068;DHT22;10194;50.824;7.134;2022-07-04T08:41:11;24.30;73.80
20068;DHT22;10194;50.824;7.134;2022-07-04T08:43:38;23.90;74.00
20068;DHT22;10194;50.824;7.134;2022-07-04T08:46:05;23.70;77.70
20068;DHT22;10194;50.824;7.134;2022-07-04T08:48:32;23.80;74.00
20068;DHT22;10194;50.824;7.134;2022-07-04T08:51:14;23.80;77.10
20068;DHT22;10194;50.824;7.134;2022-07-04T08:53:52;24.00;74.90
20068;DHT22;10194;50.824;7.134;2022-07-04T08:56:22;24.20;75.60
20068;DHT22;10194;50.824;7.134;2022-07-04T08:59:07;24.40;73.30
20068;DHT22;10194;50.824;7.134;2022-07-04T09:01:33;24.60;75.10
20068;DHT22;10194;50.824;7.134;2022-07-04T09:04:00;24.80;75.00
20068;DHT22;10194;50.824;7.134;2022-07-04T09:06:27;24.60;71.30
20068;DHT22;10194;50.824;7.134;2022-07-04T09:08:54;24.70;73.80
20068;DHT22;10194;50.824;7.134;2022-07-04T09:11:21;24.40;72.30
20068;DHT22;10194;50.824;7.134;2022-07-04T09:13:47;24.30;68.70
20068;DHT22;10194;50.824;7.134;2022-07-04T09:16:14;24.60;71.30
20068;DHT22;10194;50.824;7.134;2022-07-04T09:18:40;24.70;69.00
20068;DHT22;10194;50.824;7.134;2022-07-04T09:21:07;24.40;71.00
20068;DHT22;10194;50.824;7.134;2022-07-04T09:23:36;23.80;73.20
20068;DHT22;10194;50.824;7.134;2022-07-04T09:26:20;23.90;70.40
20068;DHT22;10194;50.824;7.134;2022-07-04T09:28:53;23.60;69.60
20068;DHT22;10194;50.824;7.134;2022-07-04T09:31:30;23.40;74.40
20068;DHT22;10194;50.824;7.134;2022-07-04T09:34:01;24.00;74.10
20068;DHT22;10194;50.824;7.134;2022-07-04T09:36:33;24.30;73.70
20068;DHT22;10194;50.824;7.134;2022-07-04T09:39:13;24.40;69.00
20068;DHT22;10194;50.824;7.134;2022-07-04T09:41:58;23.80;69.80
20068;DHT22;10194;50.824;7.134;2022-07-04T09:44:44;23.70;70.90
20068;DHT22;10194;50.824;7.134;2022-07-04T09:47:28;23.40;70.50
20068;DHT22;10194;50.824;7.134;2022-07-04T09:58:00;23.20;70.10
20068;DHT22;10194;50.824;7.134;2022-07-04T10:03:28;22.80;72.60
20068;DHT22;10194;50.824;7.134;2022-07-04T10:06:10;23.20;70.40
20068;DHT22;10194;50.824;7.134;2022-07-04T10:08:44;23.70;73.10
20068;DHT22;10194;50.824;7.134;2022-07-04T10:11:10;23.70;69.50
20068;DHT22;10194;50.824;7.134;2022-07-04T10:13:38;23.80;68.90
20068;DHT22;10194;50.824;7.134;2022-07-04T10:16:04;23.50;67.20
20068;DHT22;10194;50.824;7.134;2022-07-04T10:18:30;23.60;73.10
20068;DHT22;10194;50.824;7.134;2022-07-04T10:20:56;23.40;70.30
20068;DHT22;10194;50.824;7.134;2022-07-04T10:23:23;23.60;75.90
20068;DHT22;10194;50.824;7.134;2022-07-04T10:25:56;23.30;71.20
20068;DHT22;10194;50.824;7.134;2022-07-04T10:28:22;23.40;69.70
20068;DHT22;10194;50.824;7.134;2022-07-04T10:30:55;23.70;69.80
20068;DHT22;10194;50.824;7.134;2022-07-04T10:33:26;24.30;74.40
20068;DHT22;10194;50.824;7.134;2022-07-04T10:38:26;24.50;70.80
20068;DHT22;10194;50.824;7.134;2022-07-04T10:40:57;24.30;70.30
20068;DHT22;10194;50.824;7.134;2022-07-04T10:51:46;23.70;72.70
20068;DHT22;10194;50.824;7.134;2022-07-04T10:54:32;23.70;73.00
20068;DHT22;10194;50.824;7.134;2022-07-04T11:02:32;23.50;67.40
20068;DHT22;10194;50.824;7.134;2022-07-04T11:05:02;23.30;67.10
20068;DHT22;10194;50.824;7.134;2022-07-04T11:17:52;23.70;69.00
20068;DHT22;10194;50.824;7.134;2022-07-04T11:20:22;23.90;68.80
20068;DHT22;10194;50.824;7.134;2022-07-04T11:22:49;24.20;70.00
20068;DHT22;10194;50.824;7.134;2022-07-04T11:25:16;24.30;71.80
20068;DHT22;10194;50.824;7.134;2022-07-04T11:27:42;24.10;68.10
20068;DHT22;10194;50.824;7.134;2022-07-04T11:30:09;24.40;69.30
20068;DHT22;10194;50.824;7.134;2022-07-04T11:32:37;24.50;68.20
20068;DHT22;10194;50.824;7.134;2022-07-04T11:35:05;24.80;69.70
20068;DHT22;10194;50.824;7.134;2022-07-04T11:37:32;25.10;68.40
20068;DHT22;10194;50.824;7.134;2022-07-04T11:39:58;24.80;67.10
20068;DHT22;10194;50.824;7.134;2022-07-04T11:43:06;24.70;67.60
20068;DHT22;10194;50.824;7.134;2022-07-04T11:46:12;24.70;67.30
20068;DHT22;10194;50.824;7.134;2022-07-04T11:48:37;25.00;66.50
20068;DHT22;10194;50.824;7.134;2022-07-04T11:51:03;25.10;64.70
20068;DHT22;10194;50.824;7.134;2022-07-04T11:53:41;25.30;66.00
20068;DHT22;10194;50.824;7.134;2022-07-04T11:56:07;25.10;65.50
20068;DHT22;10194;50.824;7.134;2022-07-04T11:58:41;25.10;66.50
20068;DHT22;10194;50.824;7.134;2022-07-04T12:01:08;25.10;64.80
20068;DHT22;10194;50.824;7.134;2022-07-04T12:03:35;24.60;64.70
20068;DHT22;10194;50.824;7.134;2022-07-04T12:06:05;24.60;64.10
20068;DHT22;10194;50.824;7.134;2022-07-04T12:08:33;24.50;63.30
20068;DHT22;10194;50.824;7.134;2022-07-04T12:10:59;24.30;63.00
20068;DHT22;10194;50.824;7.134;2022-07-04T12:13:25;24.00;63.00
20068;DHT22;10194;50.824;7.134;2022-07-04T12:15:51;24.00;63.10
20068;DHT22;10194;50.824;7.134;2022-07-04T12:18:18;23.80;63.20
20068;DHT22;10194;50.824;7.134;2022-07-04T12:20:49;23.70;63.80
20068;DHT22;10194;50.824;7.134;2022-07-04T12:23:16;23.70;64.20
20068;DHT22;10194;50.824;7.134;2022-07-04T12:25:45;23.90;68.30
20068;DHT22;10194;50.824;7.134;2022-07-04T12:28:14;23.80;65.30
20068;DHT22;10194;50.824;7.134;2022-07-04T12:30:58;23.50;66.50
20068;DHT22;10194;50.824;7.134;2022-07-04T12:33:26;23.60;68.10
20068;DHT22;10194;50.824;7.134;2022-07-04T12:35:58;23.60;68.10
20068;DHT22;10194;50.824;7.134;2022-07-04T12:41:07;23.50;67.90
20068;DHT22;10194;50.824;7.134;2022-07-04T12:46:26;23.50;65.50
20068;DHT22;10194;50.824;7.134;2022-07-04T12:48:56;23.60;69.90
20068;DHT22;10194;50.824;7.134;2022-07-04T12:51:31;23.60;71.00
20068;DHT22;10194;50.824;7.134;2022-07-04T12:54:05;23.90;70.40
20068;DHT22;10194;50.824;7.134;2022-07-04T12:59:13;24.30;68.50
20068;DHT22;10194;50.824;7.134;2022-07-04T13:01:43;24.40;68.20
20068;DHT22;10194;50.824;7.134;2022-07-04T13:04:10;24.30;67.60
20068;DHT22;10194;50.824;7.134;2022-07-04T13:06:37;24.10;69.00
20068;DHT22;10194;50.824;7.134;2022-07-04T13:09:04;23.80;66.00
20068;DHT22;10194;50.824;7.134;2022-07-04T13:11:33;23.50;65.70
20068;DHT22;10194;50.824;7.134;2022-07-04T13:14:18;23.40;66.90
20068;DHT22;10194;50.824;7.134;2022-07-04T13:16:44;23.60;68.50
20068;DHT22;10194;50.824;7.134;2022-07-04T13:19:10;23.80;67.70
20068;DHT22;10194;50.824;7.134;2022-07-04T13:21:36;24.00;66.50
20068;DHT22;10194;50.824;7.134;2022-07-04T13:24:02;24.20;68.70
20068;DHT22;10194;50.824;7.134;2022-07-04T13:26:28;24.40;69.90
20068;DHT22;10194;50.824;7.134;2022-07-04T13:28:56;24.30;67.30
20068;DHT22;10194;50.824;7.134;2022-07-04T13:31:22;24.10;68.60
20068;DHT22;10194;50.824;7.134;2022-07-04T13:33:48;24.20;67.50
20068;DHT22;10194;50.824;7.134;2022-07-04T13:36:13;24.40;66.40
20068;DHT22;10194;50.824;7.134;2022-07-04T13:38:40;24.50;66.80
20068;DHT22;10194;50.824;7.134;2022-07-04T13:41:06;24.70;66.10
20068;DHT22;10194;50.824;7.134;2022-07-04T13:43:32;24.50;64.20
20068;DHT22;10194;50.824;7.134;2022-07-04T13:45:58;24.90;69.10
20068;DHT22;10194;50.824;7.134;2022-07-04T13:48:24;25.20;68.40
20068;DHT22;10194;50.824;7.134;2022-07-04T13:50:51;25.50;65.60
20068;DHT22;10194;50.824;7.134;2022-07-04T13:53:17;25.70;64.30
20068;DHT22;10194;50.824;7.134;2022-07-04T13:55:43;25.50;62.70
20068;DHT22;10194;50.824;7.134;2022-07-04T13:58:10;25.40;64.30
20068;DHT22;10194;50.824;7.134;2022-07-04T14:00:36;25.40;63.80
20068;DHT22;10194;50.824;7.134;2022-07-04T14:03:04;25.40;63.20
20068;DHT22;10194;50.824;7.134;2022-07-04T14:05:31;25.60;63.20
20068;DHT22;10194;50.824;7.134;2022-07-04T14:07:56;25.70;62.40
20068;DHT22;10194;50.824;7.134;2022-07-04T14:10:23;25.80;61.10
20068;DHT22;10194;50.824;7.134;2022-07-04T14:12:49;25.80;61.10
20068;DHT22;10194;50.824;7.134;2022-07-04T14:15:15;25.90;63.10
20068;DHT22;10194;50.824;7.134;2022-07-04T14:17:41;25.90;64.80
20068;DHT22;10194;50.824;7.134;2022-07-04T14:20:09;25.50;62.60
20068;DHT22;10194;50.824;7.134;2022-07-04T14:22:39;25.00;62.90
20068;DHT22;10194;50.824;7.134;2022-07-04T14:25:06;24.80;65.70
20068;DHT22;10194;50.824;7.134;2022-07-04T14:27:33;24.80;67.20
20068;DHT22;10194;50.824;7.134;2022-07-04T14:29:59;24.60;65.00
20068;DHT22;10194;50.824;7.134;2022-07-04T14:32:25;24.80;63.50
20068;DHT22;10194;50.824;7.134;2022-07-04T14:34:51;24.80;65.20
20068;DHT22;10194;50.824;7.134;2022-07-04T14:37:17;24.80;63.70
20068;DHT22;10194;50.824;7.134;2022-07-04T14:39:42;24.70;66.20
20068;DHT22;10194;50.824;7.134;2022-07-04T14:42:08;24.80;64.80
20068;DHT22;10194;50.824;7.134;2022-07-04T14:44:34;24.80;64.90
20068;DHT22;10194;50.824;7.134;2022-07-04T14:47:04;24.60;64.90
20068;DHT22;10194;50.824;7.134;2022-07-04T14:49:30;24.60;66.80
20068;DHT22;10194;50.824;7.134;2022-07-04T14:51:56;24.80;65.70
20068;DHT22;10194;50.824;7.134;2022-07-04T14:54:25;24.50;62.50
20068;DHT22;10194;50.824;7.134;2022-07-04T14:56:52;24.30;63.30
20068;DHT22;10194;50.824;7.134;2022-07-04T14:59:18;24.30;65.90
20068;DHT22;10194;50.824;7.134;2022-07-04T15:01:44;24.20;64.60
20068;DHT22;10194;50.824;7.134;2022-07-04T15:04:10;24.10;66.20
20068;DHT22;10194;50.824;7.134;2022-07-04T15:06:36;24.20;69.10
20068;DHT22;10194;50.824;7.134;2022-07-04T15:09:05;24.50;67.90
20068;DHT22;10194;50.824;7.134;2022-07-04T15:11:32;24.50;63.40
20068;DHT22;10194;50.824;7.134;2022-07-04T15:13:58;24.50;61.80
20068;DHT22;10194;50.824;7.134;2022-07-04T15:16:24;24.50;64.90
20068;DHT22;10194;50.824;7.134;2022-07-04T15:18:53;24.40;64.50
20068;DHT22;10194;50.824;7.134;2022-07-04T15:21:20;24.50;65.90
20068;DHT22;10194;50.824;7.134;2022-07-04T15:24:05;24.40;65.20
20068;DHT22;10194;50.824;7.134;2022-07-04T15:26:38;24.20;64.20
20068;DHT22;10194;50.824;7.134;2022-07-04T15:29:04;24.20;64.90
20068;DHT22;10194;50.824;7.134;2022-07-04T15:31:30;24.20;64.00
20068;DHT22;10194;50.824;7.134;2022-07-04T15:33:56;24.30;65.70
20068;DHT22;10194;50.824;7.134;2022-07-04T15:36:22;24.30;61.90
20068;DHT22;10194;50.824;7.134;2022-07-04T15:38:48;24.30;61.50
20068;DHT22;10194;50.824;7.134;2022-07-04T15:41:14;24.50;63.70
20068;DHT22;10194;50.824;7.134;2022-07-04T15:43:43;24.50;62.30
20068;DHT22;10194;50.824;7.134;2022-07-04T15:46:10;24.40;62.80
20068;DHT22;10194;50.824;7.134;2022-07-04T15:48:37;24.30;62.20
20068;DHT22;10194;50.824;7.134;2022-07-04T15:51:03;24.30;63.40
20068;DHT22;10194;50.824;7.134;2022-07-04T15:53:29;24.40;62.30
20068;DHT22;10194;50.824;7.134;2022-07-04T15:55:55;24.60;63.60
20068;DHT22;10194;50.824;7.134;2022-07-04T15:58:21;24.80;63.10
20068;DHT22;10194;50.824;7.134;2022-07-04T16:00:46;24.90;62.10
20068;DHT22;10194;50.824;7.134;2022-07-04T16:03:12;24.50;62.10
20068;DHT22;10194;50.824;7.134;2022-07-04T16:05:42;24.40;65.40
20068;DHT22;10194;50.824;7.134;2022-07-04T16:08:08;24.40;63.50
20068;DHT22;10194;50.824;7.134;2022-07-04T16:10:34;24.40;63.60
20068;DHT22;10194;50.824;7.134;2022-07-04T16:12:59;24.40;63.10
20068;DHT22;10194;50.824;7.134;2022-07-04T16:15:25;24.50;62.30
20068;DHT22;10194;50.824;7.134;2022-07-04T16:17:51;24.60;63.30